Time;durP1;ratioP1;P1;durP2;ratioP2;P2;SDS_P1;SDS_P2;PMS_P1;PMS_P2;Temp;Humidity;BMP_temperature;BMP_pressure;BME280_temperature;BME280_humidity;BME280_pressure;Samples;Min_cycle;Max_cycle;Signal;HPM_P1;HPM_P2
2022/09/06 00:00:56;;;;;;;;;;;25.00;80.40;;;;;;5045687;28;20347;-60
2022/09/06 00:03:23;;;;;;;;;;;25.00;80.40;;;;;;5034149;28;19925;-57
2022/09/06 00:05:50;;;;;;;;;;;25.00;80.50;;;;;;5025262;28;19967;-59
2022/09/06 00:08:18;;;;;;;;;;;25.00;80.40;;;;;;5047598;28;19929;-58
2022/09/06 00:10:45;;;;;;;;;;;25.00;81.00;;;;;;5050276;28;19933;-59
2022/09/06 00:13:12;;;;;;;;;;;25.00;80.40;;;;;;5044083;28;19933;-59
2022/09/06 00:15:39;;;;;;;;;;;25.00;80.50;;;;;;5047991;28;19929;-56
2022/09/06 00:18:07;;;;;;;;;;;25.00;80.50;;;;;;5033528;28;19936;-58
2022/09/06 00:20:40;;;;;;;;;;;25.00;80.50;;;;;;5042968;28;19943;-57
2022/09/06 00:23:07;;;;;;;;;;;25.00;80.50;;;;;;5052713;28;19936;-58
2022/09/06 00:25:34;;;;;;;;;;;25.00;80.50;;;;;;5051419;28;19929;-58
2022/09/06 00:28:03;;;;;;;;;;;25.00;80.50;;;;;;5028396;28;20396;-58
2022/09/06 00:30:31;;;;;;;;;;;25.00;80.50;;;;;;5034303;28;19929;-59
2022/09/06 00:32:58;;;;;;;;;;;25.00;80.60;;;;;;5045994;28;19932;-59
2022/09/06 00:35:26;;;;;;;;;;;25.00;80.60;;;;;;5051200;28;19929;-58
2022/09/06 00:38:00;;;;;;;;;;;24.90;80.50;;;;;;5047663;28;19940;-57
2022/09/06 00:40:28;;;;;;;;;;;24.90;80.60;;;;;;5034417;28;19933;-57
2022/09/06 00:42:56;;;;;;;;;;;24.90;80.60;;;;;;5029400;28;19936;-59
2022/09/06 00:45:24;;;;;;;;;;;25.00;80.60;;;;;;5047524;28;20408;-59
2022/09/06 00:47:51;;;;;;;;;;;25.00;80.70;;;;;;5046575;28;19936;-58
2022/09/06 00:50:19;;;;;;;;;;;24.90;80.60;;;;;;5048571;28;19929;-57
2022/09/06 00:52:47;;;;;;;;;;;24.90;80.60;;;;;;5026495;28;19929;-59
2022/09/06 00:55:15;;;;;;;;;;;24.90;80.60;;;;;;5049253;28;19929;-59
2022/09/06 00:57:42;;;;;;;;;;;24.90;80.70;;;;;;5049055;28;19929;-57
2022/09/06 01:00:10;;;;;;;;;;;25.00;80.70;;;;;;5047606;28;19929;-57
2022/09/06 01:02:37;;;;;;;;;;;25.00;80.70;;;;;;5031516;28;20389;-55
2022/09/06 01:05:05;;;;;;;;;;;24.90;80.70;;;;;;5050679;28;19958;-59
2022/09/06 01:07:47;;;;;;;;;;;24.90;80.80;;;;;;5029463;28;19929;-58
2022/09/06 01:10:23;;;;;;;;;;;24.90;80.80;;;;;;5042677;28;19929;-57
2022/09/06 01:12:51;;;;;;;;;;;24.90;80.80;;;;;;5047087;28;19930;-58
2022/09/06 01:15:27;;;;;;;;;;;24.90;80.80;;;;;;5052703;28;19928;-60
2022/09/06 01:18:04;;;;;;;;;;;24.90;80.90;;;;;;5056270;28;19944;-59
2022/09/06 01:20:37;;;;;;;;;;;24.90;80.90;;;;;;5059259;28;19925;-61
2022/09/06 01:23:22;;;;;;;;;;;24.90;80.90;;;;;;5054401;28;19932;-59
2022/09/06 01:26:18;;;;;;;;;;;24.90;80.90;;;;;;5052140;28;19928;-61
2022/09/06 01:28:46;;;;;;;;;;;24.90;80.90;;;;;;4992950;28;19941;-58
2022/09/06 01:31:26;;;;;;;;;;;24.90;81.00;;;;;;5047867;28;20352;-60
2022/09/06 01:34:02;;;;;;;;;;;24.90;81.10;;;;;;5043412;28;19928;-56
2022/09/06 01:36:35;;;;;;;;;;;24.90;81.10;;;;;;5050293;28;20179;-58
2022/09/06 01:39:28;;;;;;;;;;;24.90;81.10;;;;;;5034382;28;19932;-59
2022/09/06 01:41:56;;;;;;;;;;;24.90;81.10;;;;;;5066626;28;19993;-59
2022/09/06 01:44:25;;;;;;;;;;;24.90;81.20;;;;;;5067125;28;20201;-59
2022/09/06 01:46:55;;;;;;;;;;;24.90;81.20;;;;;;5063734;28;19935;-56
2022/09/06 01:49:22;;;;;;;;;;;24.90;81.20;;;;;;5055282;28;19929;-57
2022/09/06 01:51:49;;;;;;;;;;;24.90;81.20;;;;;;5054900;28;19929;-61
2022/09/06 01:54:35;;;;;;;;;;;24.90;81.30;;;;;;5032466;28;19925;-59
2022/09/06 01:57:27;;;;;;;;;;;24.90;81.30;;;;;;5047630;28;19928;-59
2022/09/06 02:00:02;;;;;;;;;;;24.80;81.30;;;;;;5048681;28;19936;-57
2022/09/06 02:02:47;;;;;;;;;;;24.90;81.40;;;;;;5050411;28;19932;-58
2022/09/06 02:05:19;;;;;;;;;;;24.90;81.40;;;;;;5048171;28;19929;-59
2022/09/06 02:07:47;;;;;;;;;;;24.90;81.40;;;;;;5054023;28;19925;-59
2022/09/06 02:10:21;;;;;;;;;;;24.90;81.40;;;;;;5045672;28;19956;-59
2022/09/06 02:12:50;;;;;;;;;;;24.80;81.40;;;;;;5049710;28;19928;-59
2022/09/06 02:15:29;;;;;;;;;;;24.80;81.40;;;;;;5036174;28;19939;-59
2022/09/06 02:18:04;;;;;;;;;;;24.90;81.50;;;;;;5051820;28;19929;-58
2022/09/06 02:20:33;;;;;;;;;;;24.90;81.50;;;;;;5055619;28;19925;-57
2022/09/06 02:23:03;;;;;;;;;;;24.80;81.50;;;;;;5053247;28;19932;-56
2022/09/06 02:25:33;;;;;;;;;;;24.80;81.50;;;;;;5049500;28;19936;-58
2022/09/06 02:28:01;;;;;;;;;;;24.80;81.50;;;;;;5049523;28;20308;-55
2022/09/06 02:30:28;;;;;;;;;;;24.80;81.50;;;;;;5051050;28;19932;-57
2022/09/06 02:32:58;;;;;;;;;;;24.80;81.60;;;;;;5034791;28;19929;-57
2022/09/06 02:35:25;;;;;;;;;;;24.80;81.60;;;;;;5034102;28;19925;-55
2022/09/06 02:37:52;;;;;;;;;;;24.80;81.70;;;;;;5048892;28;19933;-59
2022/09/06 02:40:20;;;;;;;;;;;24.80;81.70;;;;;;5046343;28;20297;-60
2022/09/06 02:42:47;;;;;;;;;;;24.80;81.70;;;;;;5054768;28;20324;-56
2022/09/06 02:45:14;;;;;;;;;;;24.80;81.80;;;;;;5047221;28;19939;-57
2022/09/06 02:47:41;;;;;;;;;;;24.80;81.90;;;;;;5053118;28;19925;-61
2022/09/06 02:50:09;;;;;;;;;;;24.80;81.80;;;;;;5051590;28;19925;-60
2022/09/06 02:52:36;;;;;;;;;;;24.80;81.80;;;;;;5057678;28;19929;-57
2022/09/06 02:55:03;;;;;;;;;;;24.80;81.90;;;;;;5048829;28;20395;-58
2022/09/06 02:57:30;;;;;;;;;;;24.80;81.90;;;;;;5049002;28;19929;-59
2022/09/06 02:59:57;;;;;;;;;;;24.80;81.90;;;;;;5052722;28;19936;-56
2022/09/06 03:02:25;;;;;;;;;;;24.80;81.90;;;;;;5054639;28;19959;-55
2022/09/06 03:04:52;;;;;;;;;;;24.80;82.00;;;;;;5046581;28;19929;-56
2022/09/06 03:07:19;;;;;;;;;;;24.80;82.00;;;;;;5054586;28;19928;-58
2022/09/06 03:09:46;;;;;;;;;;;24.80;82.10;;;;;;5048566;28;19948;-56
2022/09/06 03:12:13;;;;;;;;;;;24.80;82.10;;;;;;5052408;28;19939;-60
2022/09/06 03:14:40;;;;;;;;;;;24.80;82.10;;;;;;5048666;28;19932;-58
2022/09/06 03:17:08;;;;;;;;;;;24.80;82.10;;;;;;5049293;28;19931;-56
2022/09/06 03:19:35;;;;;;;;;;;24.80;82.20;;;;;;5049583;28;19940;-57
2022/09/06 03:22:02;;;;;;;;;;;24.80;82.20;;;;;;5033372;28;19929;-57
2022/09/06 03:24:29;;;;;;;;;;;24.80;82.20;;;;;;5033993;28;20312;-59
2022/09/06 03:26:56;;;;;;;;;;;24.80;82.20;;;;;;5049636;28;19925;-56
2022/09/06 03:29:23;;;;;;;;;;;24.80;82.30;;;;;;5051094;28;19932;-56
2022/09/06 03:31:50;;;;;;;;;;;24.80;82.30;;;;;;5049510;28;19928;-57
2022/09/06 03:34:18;;;;;;;;;;;24.80;82.30;;;;;;5055436;28;19932;-55
2022/09/06 03:36:45;;;;;;;;;;;24.80;82.20;;;;;;5063986;28;19936;-60
2022/09/06 03:39:12;;;;;;;;;;;24.80;82.30;;;;;;5059387;28;19928;-58
2022/09/06 03:41:39;;;;;;;;;;;24.80;82.30;;;;;;5065113;28;19935;-61
2022/09/06 03:44:06;;;;;;;;;;;24.80;82.30;;;;;;5040961;28;19929;-59
2022/09/06 03:46:33;;;;;;;;;;;24.80;82.40;;;;;;5048456;28;19929;-60
2022/09/06 03:49:00;;;;;;;;;;;24.80;82.40;;;;;;5040938;28;19936;-61
2022/09/06 03:51:28;;;;;;;;;;;24.80;82.40;;;;;;5031934;28;20422;-57
2022/09/06 03:53:55;;;;;;;;;;;24.80;82.30;;;;;;5054064;28;19933;-58
2022/09/06 03:56:22;;;;;;;;;;;24.80;82.40;;;;;;5053033;28;19948;-58
2022/09/06 03:58:49;;;;;;;;;;;24.80;82.40;;;;;;5043937;28;19936;-60
2022/09/06 04:01:16;;;;;;;;;;;24.70;82.40;;;;;;5056844;28;19925;-60
2022/09/06 04:03:43;;;;;;;;;;;24.70;82.40;;;;;;5059062;28;19932;-57
2022/09/06 04:06:10;;;;;;;;;;;24.80;82.50;;;;;;5057470;28;19924;-60
2022/09/06 04:08:38;;;;;;;;;;;24.80;82.50;;;;;;5057674;28;19935;-59
2022/09/06 04:11:05;;;;;;;;;;;24.70;82.40;;;;;;5046720;28;19929;-57
2022/09/06 04:13:33;;;;;;;;;;;24.70;82.50;;;;;;5051349;28;19936;-58
2022/09/06 04:16:00;;;;;;;;;;;24.80;82.50;;;;;;5050959;28;19999;-58
2022/09/06 04:18:27;;;;;;;;;;;24.80;82.50;;;;;;5050879;28;19933;-58
2022/09/06 04:20:55;;;;;;;;;;;24.80;82.60;;;;;;5035831;28;19936;-56
2022/09/06 04:23:23;;;;;;;;;;;24.70;82.50;;;;;;5051675;28;19929;-57
2022/09/06 04:25:52;;;;;;;;;;;24.70;82.50;;;;;;5035396;28;19925;-56
2022/09/06 04:28:20;;;;;;;;;;;24.70;82.60;;;;;;5047430;28;19936;-57
2022/09/06 04:30:57;;;;;;;;;;;24.70;82.60;;;;;;5047712;28;19929;-58
2022/09/06 04:33:31;;;;;;;;;;;24.70;82.50;;;;;;5051509;28;20419;-57
2022/09/06 04:35:59;;;;;;;;;;;24.70;82.60;;;;;;5045529;28;19925;-57
2022/09/06 04:38:27;;;;;;;;;;;24.70;82.60;;;;;;5035237;28;19925;-58
2022/09/06 04:40:55;;;;;;;;;;;24.70;82.60;;;;;;5045680;28;19929;-57
2022/09/06 04:43:22;;;;;;;;;;;24.70;82.60;;;;;;5049642;28;20380;-55
2022/09/06 04:45:49;;;;;;;;;;;24.70;82.60;;;;;;5048323;28;20487;-58
2022/09/06 04:48:17;;;;;;;;;;;24.70;82.80;;;;;;5031655;28;20312;-59
2022/09/06 04:50:44;;;;;;;;;;;24.70;82.80;;;;;;5052355;28;20007;-58
2022/09/06 04:53:11;;;;;;;;;;;24.70;83.40;;;;;;5051488;28;20407;-56
2022/09/06 04:55:38;;;;;;;;;;;24.70;82.80;;;;;;5052363;28;20649;-58
2022/09/06 04:58:05;;;;;;;;;;;24.70;82.80;;;;;;5046456;28;19936;-60
2022/09/06 05:00:34;;;;;;;;;;;24.70;82.80;;;;;;5046677;28;19929;-57
2022/09/06 05:03:01;;;;;;;;;;;24.70;82.90;;;;;;5046100;28;19931;-60
2022/09/06 05:05:28;;;;;;;;;;;24.70;82.90;;;;;;5048757;28;19929;-57
2022/09/06 05:07:56;;;;;;;;;;;24.70;82.80;;;;;;5051237;28;19929;-60
2022/09/06 05:10:23;;;;;;;;;;;24.70;82.90;;;;;;5030252;28;19924;-59
2022/09/06 05:12:51;;;;;;;;;;;24.70;82.90;;;;;;5045376;28;20304;-57
2022/09/06 05:15:19;;;;;;;;;;;24.60;82.80;;;;;;5050966;28;19936;-58
2022/09/06 05:17:46;;;;;;;;;;;24.60;82.80;;;;;;5048780;28;19932;-56
2022/09/06 05:20:14;;;;;;;;;;;24.70;82.80;;;;;;5045852;28;20008;-57
2022/09/06 05:22:41;;;;;;;;;;;24.70;82.80;;;;;;5048465;28;19925;-57
2022/09/06 05:25:09;;;;;;;;;;;24.70;82.80;;;;;;5048218;28;19936;-59
2022/09/06 05:27:36;;;;;;;;;;;24.70;82.80;;;;;;5049961;28;19939;-62
2022/09/06 05:30:03;;;;;;;;;;;24.70;82.80;;;;;;5049997;28;19928;-58
2022/09/06 05:32:30;;;;;;;;;;;24.70;82.80;;;;;;5033786;28;19928;-56
2022/09/06 05:34:57;;;;;;;;;;;24.70;82.80;;;;;;5050820;28;19928;-56
2022/09/06 05:37:25;;;;;;;;;;;24.70;82.80;;;;;;5046915;28;19933;-61
2022/09/06 05:39:52;;;;;;;;;;;24.70;83.30;;;;;;5043226;28;19936;-58
2022/09/06 05:42:19;;;;;;;;;;;24.70;82.70;;;;;;5050481;28;19928;-58
2022/09/06 05:44:46;;;;;;;;;;;24.70;82.80;;;;;;5031781;28;19929;-59
2022/09/06 05:47:13;;;;;;;;;;;24.60;82.70;;;;;;5045759;28;19925;-58
2022/09/06 05:49:41;;;;;;;;;;;24.70;82.70;;;;;;5018650;28;19925;-56
2022/09/06 05:52:08;;;;;;;;;;;24.70;83.30;;;;;;5037462;28;19925;-59
2022/09/06 05:54:35;;;;;;;;;;;24.70;82.80;;;;;;5060207;28;19932;-58
2022/09/06 05:57:02;;;;;;;;;;;24.70;82.80;;;;;;5058199;28;19929;-58
2022/09/06 05:59:29;;;;;;;;;;;24.60;82.70;;;;;;5042106;28;19929;-56
2022/09/06 06:01:56;;;;;;;;;;;24.60;82.70;;;;;;5057149;28;19933;-59
2022/09/06 06:04:24;;;;;;;;;;;24.60;82.70;;;;;;5047190;28;19936;-61
2022/09/06 06:06:51;;;;;;;;;;;24.70;82.80;;;;;;5048592;28;19935;-57
2022/09/06 06:09:18;;;;;;;;;;;24.60;82.80;;;;;;5040921;28;19929;-60
2022/09/06 06:11:45;;;;;;;;;;;24.60;82.70;;;;;;5046102;28;19933;-57
2022/09/06 06:14:12;;;;;;;;;;;24.60;82.80;;;;;;5048098;28;19928;-60
2022/09/06 06:16:40;;;;;;;;;;;24.60;82.80;;;;;;5045643;28;19929;-59
2022/09/06 06:19:07;;;;;;;;;;;24.60;82.80;;;;;;5045322;28;19933;-58
2022/09/06 06:21:34;;;;;;;;;;;24.60;82.80;;;;;;5041775;28;19937;-59
2022/09/06 06:24:03;;;;;;;;;;;24.60;82.80;;;;;;5041567;28;19936;-58
2022/09/06 06:26:31;;;;;;;;;;;24.60;82.80;;;;;;5052177;28;19929;-60
2022/09/06 06:29:00;;;;;;;;;;;24.60;82.80;;;;;;5050230;28;19924;-58
2022/09/06 06:31:28;;;;;;;;;;;24.60;82.90;;;;;;5054319;28;20319;-61
2022/09/06 06:33:56;;;;;;;;;;;24.60;82.90;;;;;;5049812;28;20309;-59
2022/09/06 06:36:24;;;;;;;;;;;24.60;82.90;;;;;;5047066;28;19948;-59
2022/09/06 06:38:53;;;;;;;;;;;24.60;83.10;;;;;;5046073;28;19936;-63
2022/09/06 06:41:24;;;;;;;;;;;24.60;83.40;;;;;;5031700;28;20312;-64
2022/09/06 06:43:52;;;;;;;;;;;24.60;83.90;;;;;;5032540;28;19935;-62
2022/09/06 06:46:20;;;;;;;;;;;24.60;85.20;;;;;;5051747;28;19936;-60
2022/09/06 06:48:47;;;;;;;;;;;24.60;86.60;;;;;;5047278;28;20427;-65
2022/09/06 06:51:21;;;;;;;;;;;24.50;89.00;;;;;;5044470;28;19924;-57
2022/09/06 06:53:48;;;;;;;;;;;24.30;89.50;;;;;;5044249;28;19935;-62
2022/09/06 06:56:20;;;;;;;;;;;24.20;90.10;;;;;;5030537;28;19929;-58
2022/09/06 06:58:48;;;;;;;;;;;24.20;90.10;;;;;;5044513;28;19940;-58
2022/09/06 07:01:16;;;;;;;;;;;24.20;90.30;;;;;;5041907;28;19928;-58
2022/09/06 07:03:43;;;;;;;;;;;24.20;90.30;;;;;;5046948;28;19936;-60
2022/09/06 07:06:10;;;;;;;;;;;24.20;90.30;;;;;;5046507;28;19931;-58
2022/09/06 07:08:39;;;;;;;;;;;24.10;90.50;;;;;;5045660;28;19928;-63
2022/09/06 07:11:07;;;;;;;;;;;23.90;90.80;;;;;;5043251;28;19999;-59
2022/09/06 07:13:34;;;;;;;;;;;24.00;90.60;;;;;;5042684;28;19936;-61
2022/09/06 07:16:10;;;;;;;;;;;24.00;90.70;;;;;;5043790;28;20401;-60
2022/09/06 07:18:40;;;;;;;;;;;23.90;90.60;;;;;;5041655;28;19936;-60
2022/09/06 07:21:09;;;;;;;;;;;23.60;90.80;;;;;;5028929;28;20320;-60
2022/09/06 07:23:56;;;;;;;;;;;23.70;91.00;;;;;;5047325;28;19924;-59
2022/09/06 07:26:30;;;;;;;;;;;23.80;90.80;;;;;;5045039;28;19928;-60
2022/09/06 07:28:59;;;;;;;;;;;23.90;90.70;;;;;;5043387;28;19933;-58
2022/09/06 07:31:27;;;;;;;;;;;23.80;90.80;;;;;;5029771;28;19948;-56
2022/09/06 07:34:16;;;;;;;;;;;23.90;90.80;;;;;;5042368;28;19936;-60
2022/09/06 07:36:43;;;;;;;;;;;23.90;90.70;;;;;;5041692;28;20295;-59
2022/09/06 07:39:10;;;;;;;;;;;23.70;91.20;;;;;;5043161;28;19925;-59
2022/09/06 07:41:37;;;;;;;;;;;23.60;91.40;;;;;;5039677;28;19932;-59
2022/09/06 07:44:04;;;;;;;;;;;23.60;91.50;;;;;;5041786;28;20020;-59
2022/09/06 07:46:32;;;;;;;;;;;23.70;91.20;;;;;;5046814;28;19925;-56
2022/09/06 07:48:59;;;;;;;;;;;23.70;91.30;;;;;;5042263;28;19929;-60
2022/09/06 07:51:26;;;;;;;;;;;23.60;91.60;;;;;;5044567;28;19932;-58
2022/09/06 07:53:56;;;;;;;;;;;23.60;91.70;;;;;;5039817;28;20393;-57
2022/09/06 07:56:43;;;;;;;;;;;23.50;91.90;;;;;;5035885;28;20422;-57
2022/09/06 07:59:11;;;;;;;;;;;23.50;91.30;;;;;;5046859;28;19932;-58
2022/09/06 08:01:39;;;;;;;;;;;23.60;91.10;;;;;;5042068;28;20721;-57
2022/09/06 08:04:07;;;;;;;;;;;23.70;91.30;;;;;;5043141;28;20347;-61
2022/09/06 08:06:38;;;;;;;;;;;23.70;91.10;;;;;;5049158;28;19929;-61
2022/09/06 08:09:25;;;;;;;;;;;23.70;91.20;;;;;;5047279;28;20392;-61
2022/09/06 08:11:53;;;;;;;;;;;23.90;91.30;;;;;;5042497;28;19929;-58
2022/09/06 08:14:20;;;;;;;;;;;23.90;91.00;;;;;;5044855;28;19936;-59
2022/09/06 08:16:47;;;;;;;;;;;23.80;91.10;;;;;;5041460;28;20397;-57
2022/09/06 08:19:17;;;;;;;;;;;23.90;91.40;;;;;;5053135;28;19935;-59
2022/09/06 08:21:44;;;;;;;;;;;23.90;91.40;;;;;;5054051;28;19928;-63
2022/09/06 08:24:11;;;;;;;;;;;23.70;91.40;;;;;;5047557;28;19932;-55
2022/09/06 08:26:41;;;;;;;;;;;23.70;91.60;;;;;;5044547;28;20343;-63
2022/09/06 08:29:09;;;;;;;;;;;23.70;92.20;;;;;;5042213;28;19947;-61
2022/09/06 08:31:38;;;;;;;;;;;23.90;92.20;;;;;;5044786;28;19928;-61
2022/09/06 08:34:05;;;;;;;;;;;23.90;92.20;;;;;;5043461;28;19952;-63
2022/09/06 08:36:33;;;;;;;;;;;23.90;91.80;;;;;;5044751;28;19936;-62
2022/09/06 08:39:01;;;;;;;;;;;23.90;91.90;;;;;;5044417;28;19924;-61
2022/09/06 08:41:31;;;;;;;;;;;23.90;92.00;;;;;;5046261;28;19933;-63
2022/09/06 08:44:01;;;;;;;;;;;23.90;91.50;;;;;;5044961;28;19928;-62
2022/09/06 08:46:56;;;;;;;;;;;23.80;92.00;;;;;;5045465;28;20438;-62
2022/09/06 08:49:29;;;;;;;;;;;23.90;92.00;;;;;;5045009;28;20086;-56
2022/09/06 08:52:08;;;;;;;;;;;24.00;92.10;;;;;;5044636;28;19929;-57
2022/09/06 08:54:38;;;;;;;;;;;24.20;92.20;;;;;;5038237;28;20304;-62
2022/09/06 08:57:21;;;;;;;;;;;24.40;91.90;;;;;;5044413;28;19928;-62
2022/09/06 08:59:50;;;;;;;;;;;24.30;91.50;;;;;;5040376;28;20364;-57
2022/09/06 09:02:19;;;;;;;;;;;24.20;91.30;;;;;;5042400;28;19928;-61
2022/09/06 09:04:49;;;;;;;;;;;24.20;91.50;;;;;;5041477;28;20389;-62
2022/09/06 09:07:31;;;;;;;;;;;24.20;91.40;;;;;;5040830;28;20376;-64
2022/09/06 09:10:00;;;;;;;;;;;24.30;91.30;;;;;;5045731;28;19928;-56
2022/09/06 09:12:29;;;;;;;;;;;24.30;91.40;;;;;;5043770;28;21218;-58
2022/09/06 09:15:00;;;;;;;;;;;24.30;91.40;;;;;;5036035;28;19931;-59
2022/09/06 09:17:29;;;;;;;;;;;24.30;91.80;;;;;;5035919;28;19932;-61
2022/09/06 09:19:56;;;;;;;;;;;24.40;91.90;;;;;;5042929;28;19925;-61
2022/09/06 09:22:24;;;;;;;;;;;24.50;91.90;;;;;;5027508;28;19928;-58
2022/09/06 09:24:51;;;;;;;;;;;24.60;91.90;;;;;;5043524;28;19925;-63
2022/09/06 09:27:23;;;;;;;;;;;24.60;92.00;;;;;;5019560;28;19929;-61
2022/09/06 09:29:53;;;;;;;;;;;24.60;92.50;;;;;;5040102;28;20323;-59
2022/09/06 09:32:41;;;;;;;;;;;24.60;92.30;;;;;;5043909;28;19941;-58
2022/09/06 09:35:28;;;;;;;;;;;24.60;92.70;;;;;;5030366;28;19940;-62
2022/09/06 09:38:15;;;;;;;;;;;24.70;93.00;;;;;;5047263;28;19928;-63
2022/09/06 09:40:52;;;;;;;;;;;24.70;92.70;;;;;;5018837;28;19929;-61
2022/09/06 09:43:21;;;;;;;;;;;24.70;92.90;;;;;;5043152;28;19937;-67
2022/09/06 09:46:07;;;;;;;;;;;24.70;92.40;;;;;;5045779;28;19929;-61
2022/09/06 09:48:35;;;;;;;;;;;24.70;92.10;;;;;;5044360;28;19928;-62
2022/09/06 09:51:22;;;;;;;;;;;24.60;93.50;;;;;;5041407;28;19929;-64
2022/09/06 09:53:57;;;;;;;;;;;24.60;93.40;;;;;;5040748;28;20392;-62
2022/09/06 09:56:27;;;;;;;;;;;24.60;92.30;;;;;;5061235;28;19948;-62
2022/09/06 09:58:56;;;;;;;;;;;24.60;95.00;;;;;;5057669;28;19928;-62
2022/09/06 10:01:29;;;;;;;;;;;24.70;93.80;;;;;;5062731;28;19999;-60
2022/09/06 10:03:59;;;;;;;;;;;24.60;92.90;;;;;;5048757;28;19937;-59
2022/09/06 10:06:47;;;;;;;;;;;24.60;93.50;;;;;;5049346;28;20500;-61
2022/09/06 10:09:35;;;;;;;;;;;24.60;93.40;;;;;;5037471;28;19929;-60
2022/09/06 10:12:03;;;;;;;;;;;24.70;93.00;;;;;;5033910;28;19929;-60
2022/09/06 10:14:32;;;;;;;;;;;24.70;92.60;;;;;;5054092;28;19940;-60
2022/09/06 10:16:59;;;;;;;;;;;24.80;92.50;;;;;;5024634;28;19936;-61
2022/09/06 10:19:40;;;;;;;;;;;24.80;92.30;;;;;;5049950;28;19925;-60
2022/09/06 10:22:15;;;;;;;;;;;24.80;92.20;;;;;;5052548;28;19948;-60
2022/09/06 10:24:48;;;;;;;;;;;24.90;92.20;;;;;;5042340;28;19931;-59
2022/09/06 10:27:18;;;;;;;;;;;24.90;92.00;;;;;;5047597;28;20000;-61
2022/09/06 10:29:54;;;;;;;;;;;24.90;91.90;;;;;;5052364;28;19940;-59
2022/09/06 10:32:40;;;;;;;;;;;24.90;91.80;;;;;;5040751;28;19944;-68
2022/09/06 10:35:13;;;;;;;;;;;24.90;91.70;;;;;;5060182;28;19928;-60
2022/09/06 10:37:57;;;;;;;;;;;24.90;91.60;;;;;;5057647;28;20293;-61
2022/09/06 10:40:43;;;;;;;;;;;24.90;91.50;;;;;;5047932;28;19936;-61
2022/09/06 10:43:16;;;;;;;;;;;24.90;91.40;;;;;;5053280;28;19935;-61
2022/09/06 10:45:56;;;;;;;;;;;24.90;91.30;;;;;;5032048;28;20365;-60
2022/09/06 10:48:26;;;;;;;;;;;24.90;91.10;;;;;;5048876;28;19925;-59
2022/09/06 10:50:53;;;;;;;;;;;24.90;91.00;;;;;;5049156;28;19936;-58
2022/09/06 10:53:20;;;;;;;;;;;25.00;91.00;;;;;;5045440;28;20427;-62
2022/09/06 10:56:02;;;;;;;;;;;25.00;91.00;;;;;;5044106;28;19929;-60
2022/09/06 10:58:32;;;;;;;;;;;24.90;90.80;;;;;;5027684;28;19928;-60
2022/09/06 11:01:26;;;;;;;;;;;24.90;90.80;;;;;;5050377;28;20376;-58
2022/09/06 11:03:55;;;;;;;;;;;24.90;90.70;;;;;;5041723;28;19925;-61
2022/09/06 11:06:33;;;;;;;;;;;24.90;90.70;;;;;;5050109;28;19932;-59
2022/09/06 11:09:00;;;;;;;;;;;25.00;90.60;;;;;;5045114;28;19933;-60
2022/09/06 11:11:34;;;;;;;;;;;25.00;90.60;;;;;;5044070;28;19933;-57
2022/09/06 11:14:06;;;;;;;;;;;25.00;90.50;;;;;;5050748;28;19925;-58
2022/09/06 11:16:38;;;;;;;;;;;25.00;90.50;;;;;;5045816;28;20415;-61
2022/09/06 11:19:09;;;;;;;;;;;25.00;90.40;;;;;;5023129;28;19932;-58
2022/09/06 11:21:43;;;;;;;;;;;25.00;90.40;;;;;;5041494;28;20396;-61
2022/09/06 11:24:15;;;;;;;;;;;25.00;90.30;;;;;;5045716;28;19929;-61
2022/09/06 11:27:05;;;;;;;;;;;25.00;90.30;;;;;;5049346;28;20450;-55
2022/09/06 11:29:33;;;;;;;;;;;25.00;90.20;;;;;;5040920;28;20279;-58
2022/09/06 11:32:01;;;;;;;;;;;25.00;90.20;;;;;;5048539;28;19932;-63
2022/09/06 11:34:53;;;;;;;;;;;25.00;90.20;;;;;;5042779;28;20324;-63
2022/09/06 11:37:29;;;;;;;;;;;25.00;90.10;;;;;;5045468;28;19932;-61
2022/09/06 11:40:12;;;;;;;;;;;25.00;90.10;;;;;;5046266;28;19969;-59
2022/09/06 11:42:58;;;;;;;;;;;25.00;90.00;;;;;;5043791;28;19929;-58
2022/09/06 11:45:37;;;;;;;;;;;25.00;90.00;;;;;;5030423;28;19929;-62
2022/09/06 11:48:22;;;;;;;;;;;25.00;89.80;;;;;;5049474;28;19936;-60
2022/09/06 11:50:52;;;;;;;;;;;25.00;89.40;;;;;;5044448;28;19939;-58
2022/09/06 11:53:20;;;;;;;;;;;25.00;89.70;;;;;;5042574;28;19933;-59
2022/09/06 11:55:49;;;;;;;;;;;25.00;90.00;;;;;;5044082;28;19929;-60
2022/09/06 11:58:16;;;;;;;;;;;25.00;89.70;;;;;;5040210;28;19925;-60
2022/09/06 12:00:44;;;;;;;;;;;25.00;89.90;;;;;;5044136;28;19924;-55
2022/09/06 12:03:30;;;;;;;;;;;25.10;89.20;;;;;;5040484;28;19932;-56
2022/09/06 12:06:18;;;;;;;;;;;25.10;89.30;;;;;;5044892;28;19936;-56
2022/09/06 12:08:46;;;;;;;;;;;25.10;88.60;;;;;;5043049;28;19956;-60
2022/09/06 12:11:20;;;;;;;;;;;25.20;89.20;;;;;;5045519;28;19932;-61
2022/09/06 12:13:50;;;;;;;;;;;25.20;89.40;;;;;;5046685;28;19925;-59
2022/09/06 12:16:17;;;;;;;;;;;25.20;90.10;;;;;;5046948;28;20411;-60
2022/09/06 12:18:48;;;;;;;;;;;25.20;90.10;;;;;;5052480;28;20307;-63
2022/09/06 12:21:34;;;;;;;;;;;25.20;90.30;;;;;;5042826;28;19925;-67
2022/09/06 12:24:01;;;;;;;;;;;25.20;90.60;;;;;;5046576;28;19940;-67
2022/09/06 12:26:49;;;;;;;;;;;25.30;91.00;;;;;;5030481;28;19936;-67
2022/09/06 12:29:24;;;;;;;;;;;25.30;91.10;;;;;;5046913;28;19933;-68
2022/09/06 12:31:52;;;;;;;;;;;25.40;90.90;;;;;;5043994;28;20377;-61
2022/09/06 12:34:28;;;;;;;;;;;25.40;91.10;;;;;;5029739;28;19924;-59
2022/09/06 12:36:57;;;;;;;;;;;25.40;91.00;;;;;;5045016;28;19960;-60
2022/09/06 12:39:24;;;;;;;;;;;25.30;90.90;;;;;;5042860;28;19936;-60
2022/09/06 12:41:56;;;;;;;;;;;25.40;91.00;;;;;;5043912;28;20333;-59
2022/09/06 12:44:32;;;;;;;;;;;25.40;91.00;;;;;;5039920;28;19932;-62
2022/09/06 12:47:21;;;;;;;;;;;25.40;91.00;;;;;;5042216;28;19929;-60
2022/09/06 12:50:07;;;;;;;;;;;25.40;91.10;;;;;;5043222;28;19928;-61
2022/09/06 12:52:42;;;;;;;;;;;25.40;90.90;;;;;;5050474;28;19928;-62
2022/09/06 12:55:15;;;;;;;;;;;25.40;91.30;;;;;;5034568;28;19929;-58
2022/09/06 12:57:46;;;;;;;;;;;25.40;91.20;;;;;;5052774;28;19932;-60
2022/09/06 13:00:13;;;;;;;;;;;25.50;91.10;;;;;;5052477;28;19951;-61
2022/09/06 13:02:48;;;;;;;;;;;25.50;91.00;;;;;;5049329;28;19932;-60
2022/09/06 13:05:16;;;;;;;;;;;25.50;90.90;;;;;;5060799;28;19928;-62
2022/09/06 13:07:47;;;;;;;;;;;25.50;90.80;;;;;;5048078;28;19932;-61
2022/09/06 13:10:17;;;;;;;;;;;25.50;90.60;;;;;;5057523;28;19935;-59
2022/09/06 13:12:45;;;;;;;;;;;25.60;90.40;;;;;;5055652;28;19940;-62
2022/09/06 13:15:18;;;;;;;;;;;25.60;90.50;;;;;;5039619;28;19933;-62
2022/09/06 13:17:46;;;;;;;;;;;25.70;90.40;;;;;;5031156;28;19933;-60
2022/09/06 13:20:20;;;;;;;;;;;25.70;90.50;;;;;;5049564;28;19929;-62
2022/09/06 13:22:49;;;;;;;;;;;25.70;90.60;;;;;;5045809;28;19929;-59
2022/09/06 13:25:23;;;;;;;;;;;25.80;90.70;;;;;;5047567;28;19924;-62
2022/09/06 13:27:56;;;;;;;;;;;25.80;90.70;;;;;;5049144;28;19925;-61
2022/09/06 13:30:29;;;;;;;;;;;25.80;90.70;;;;;;5046792;28;19924;-59
2022/09/06 13:32:57;;;;;;;;;;;25.80;90.70;;;;;;5042733;28;19925;-60
2022/09/06 13:35:28;;;;;;;;;;;25.90;90.60;;;;;;5033794;28;19925;-61
2022/09/06 13:38:14;;;;;;;;;;;25.90;90.50;;;;;;5053353;28;20488;-59
2022/09/06 13:40:42;;;;;;;;;;;25.90;90.40;;;;;;5046303;28;19929;-58
2022/09/06 13:43:33;;;;;;;;;;;25.90;90.40;;;;;;5049219;28;19936;-60
2022/09/06 13:46:04;;;;;;;;;;;26.00;90.40;;;;;;5031269;28;20305;-59
2022/09/06 13:48:32;;;;;;;;;;;26.00;90.40;;;;;;5043425;28;19948;-59
2022/09/06 13:50:59;;;;;;;;;;;26.00;90.30;;;;;;5027135;28;20422;-58
2022/09/06 13:53:26;;;;;;;;;;;26.00;90.20;;;;;;5050227;28;19932;-59
2022/09/06 13:55:54;;;;;;;;;;;26.10;90.20;;;;;;5029406;28;20214;-60
2022/09/06 13:58:21;;;;;;;;;;;26.10;90.20;;;;;;5045521;28;19933;-61
2022/09/06 14:00:48;;;;;;;;;;;26.10;90.20;;;;;;5043751;28;20177;-61
2022/09/06 14:03:21;;;;;;;;;;;26.20;90.20;;;;;;5046285;28;19929;-61
2022/09/06 14:05:51;;;;;;;;;;;26.20;90.20;;;;;;5048872;28;19934;-58
2022/09/06 14:08:20;;;;;;;;;;;26.20;90.00;;;;;;5049886;28;19935;-58
2022/09/06 14:10:47;;;;;;;;;;;26.30;90.00;;;;;;5047145;28;19929;-60
2022/09/06 14:13:14;;;;;;;;;;;26.20;90.00;;;;;;5046096;28;20330;-60
2022/09/06 14:15:42;;;;;;;;;;;26.20;90.10;;;;;;5048225;28;19932;-61
2022/09/06 14:18:09;;;;;;;;;;;26.20;90.20;;;;;;5047941;28;20428;-61
2022/09/06 14:20:41;;;;;;;;;;;26.20;90.30;;;;;;5048361;28;19936;-62
2022/09/06 14:23:08;;;;;;;;;;;26.30;90.30;;;;;;5047663;28;19924;-57
2022/09/06 14:25:36;;;;;;;;;;;26.30;90.20;;;;;;5048658;28;19924;-61
2022/09/06 14:28:03;;;;;;;;;;;26.40;90.10;;;;;;5025645;28;20440;-60
2022/09/06 14:30:31;;;;;;;;;;;26.40;90.20;;;;;;5030643;28;20006;-59
2022/09/06 14:32:58;;;;;;;;;;;26.50;90.40;;;;;;5049387;28;20031;-60
2022/09/06 14:35:26;;;;;;;;;;;26.50;90.20;;;;;;5049784;28;19929;-57
2022/09/06 14:37:53;;;;;;;;;;;26.60;90.20;;;;;;5030159;28;20415;-61